sensor_id;sensor_type;location;lat;lon;timestamp;P1;durP1;ratioP1;P2;durP2;ratioP2
23123;SDS011;11731;48.592;8.858;2022-12-10T00:20:26;28.23;;;16.37;;
23123;SDS011;11731;48.592;8.858;2022-12-10T00:22:53;27.03;;;16.03;;
23123;SDS011;11731;48.592;8.858;2022-12-10T00:25:20;27.43;;;15.40;;
23123;SDS011;11731;48.592;8.858;2022-12-10T00:28:01;26.70;;;16.33;;
23123;SDS011;11731;48.592;8.858;2022-12-10T00:30:31;27.93;;;15.83;;
23123;SDS011;11731;48.592;8.858;2022-12-10T00:32:59;24.50;;;15.10;;
23123;SDS011;11731;48.592;8.858;2022-12-10T00:35:45;24.70;;;15.33;;
23123;SDS011;11731;48.592;8.858;2022-12-10T00:38:15;26.57;;;15.97;;
23123;SDS011;11731;48.592;8.858;2022-12-10T00:40:46;28.73;;;15.40;;
23123;SDS011;11731;48.592;8.858;2022-12-10T00:43:13;26.03;;;15.80;;
23123;SDS011;11731;48.592;8.858;2022-12-10T00:45:54;28.53;;;16.90;;
23123;SDS011;11731;48.592;8.858;2022-12-10T00:48:21;30.03;;;16.33;;
23123;SDS011;11731;48.592;8.858;2022-12-10T00:50:58;25.50;;;15.63;;
23123;SDS011;11731;48.592;8.858;2022-12-10T00:53:26;29.23;;;15.73;;
23123;SDS011;11731;48.592;8.858;2022-12-10T00:55:58;28.27;;;15.43;;
23123;SDS011;11731;48.592;8.858;2022-12-10T00:58:28;25.00;;;14.93;;
23123;SDS011;11731;48.592;8.858;2022-12-10T01:01:07;27.33;;;15.47;;
23123;SDS011;11731;48.592;8.858;2022-12-10T01:03:36;30.37;;;15.90;;
23123;SDS011;11731;48.592;8.858;2022-12-10T01:06:13;25.47;;;15.67;;
23123;SDS011;11731;48.592;8.858;2022-12-10T01:08:47;28.43;;;15.93;;
23123;SDS011;11731;48.592;8.858;2022-12-10T01:11:16;29.27;;;16.13;;
23123;SDS011;11731;48.592;8.858;2022-12-10T01:13:45;27.53;;;16.00;;
23123;SDS011;11731;48.592;8.858;2022-12-10T01:16:14;29.87;;;16.83;;
23123;SDS011;11731;48.592;8.858;2022-12-10T01:18:43;30.30;;;15.97;;
23123;SDS011;11731;48.592;8.858;2022-12-10T01:21:14;22.77;;;15.10;;
23123;SDS011;11731;48.592;8.858;2022-12-10T01:24:45;29.00;;;15.50;;
23123;SDS011;11731;48.592;8.858;2022-12-10T01:26:52;26.63;;;16.07;;
23123;SDS011;11731;48.592;8.858;2022-12-10T01:29:27;32.53;;;16.20;;
23123;SDS011;11731;48.592;8.858;2022-12-10T01:32:07;29.23;;;16.03;;
23123;SDS011;11731;48.592;8.858;2022-12-10T01:38:49;28.43;;;15.90;;
23123;SDS011;11731;48.592;8.858;2022-12-10T01:41:19;26.50;;;14.97;;
23123;SDS011;11731;48.592;8.858;2022-12-10T01:43:51;28.73;;;16.43;;
23123;SDS011;11731;48.592;8.858;2022-12-10T01:46:21;24.13;;;15.67;;
23123;SDS011;11731;48.592;8.858;2022-12-10T01:48:49;25.37;;;15.53;;
23123;SDS011;11731;48.592;8.858;2022-12-10T01:51:17;29.73;;;16.30;;
23123;SDS011;11731;48.592;8.858;2022-12-10T01:53:45;27.67;;;15.53;;
23123;SDS011;11731;48.592;8.858;2022-12-10T01:56:15;26.20;;;15.50;;
23123;SDS011;11731;48.592;8.858;2022-12-10T01:58:47;31.07;;;15.63;;
23123;SDS011;11731;48.592;8.858;2022-12-10T02:01:19;29.30;;;16.00;;
23123;SDS011;11731;48.592;8.858;2022-12-10T02:03:56;26.27;;;15.03;;
23123;SDS011;11731;48.592;8.858;2022-12-10T02:06:37;32.23;;;15.50;;
23123;SDS011;11731;48.592;8.858;2022-12-10T02:09:21;26.60;;;16.23;;
23123;SDS011;11731;48.592;8.858;2022-12-10T02:11:55;24.47;;;15.27;;
23123;SDS011;11731;48.592;8.858;2022-12-10T02:14:32;27.93;;;17.40;;
23123;SDS011;11731;48.592;8.858;2022-12-10T02:17:07;27.57;;;17.07;;
23123;SDS011;11731;48.592;8.858;2022-12-10T02:19:44;27.03;;;15.97;;
23123;SDS011;11731;48.592;8.858;2022-12-10T02:22:26;27.63;;;16.80;;
23123;SDS011;11731;48.592;8.858;2022-12-10T02:24:57;26.77;;;15.97;;
23123;SDS011;11731;48.592;8.858;2022-12-10T02:27:30;24.63;;;15.60;;
23123;SDS011;11731;48.592;8.858;2022-12-10T02:30:05;23.90;;;14.80;;
23123;SDS011;11731;48.592;8.858;2022-12-10T02:32:33;27.13;;;15.33;;
23123;SDS011;11731;48.592;8.858;2022-12-10T02:35:06;23.40;;;15.13;;
23123;SDS011;11731;48.592;8.858;2022-12-10T02:37:38;26.03;;;14.80;;
23123;SDS011;11731;48.592;8.858;2022-12-10T02:40:09;29.97;;;15.20;;
23123;SDS011;11731;48.592;8.858;2022-12-10T02:42:41;23.80;;;15.23;;
23123;SDS011;11731;48.592;8.858;2022-12-10T02:45:12;23.97;;;14.73;;
23123;SDS011;11731;48.592;8.858;2022-12-10T02:47:41;23.73;;;14.33;;
23123;SDS011;11731;48.592;8.858;2022-12-10T02:53:16;27.93;;;16.60;;
23123;SDS011;11731;48.592;8.858;2022-12-10T02:55:51;26.03;;;15.73;;
23123;SDS011;11731;48.592;8.858;2022-12-10T02:58:45;23.40;;;14.20;;
23123;SDS011;11731;48.592;8.858;2022-12-10T03:01:28;24.07;;;16.37;;
23123;SDS011;11731;48.592;8.858;2022-12-10T03:04:42;24.70;;;14.83;;
23123;SDS011;11731;48.592;8.858;2022-12-10T03:07:37;27.97;;;16.20;;
23123;SDS011;11731;48.592;8.858;2022-12-10T03:10:09;26.03;;;15.20;;
23123;SDS011;11731;48.592;8.858;2022-12-10T03:12:41;26.17;;;14.20;;
23123;SDS011;11731;48.592;8.858;2022-12-10T03:15:13;24.13;;;14.27;;
23123;SDS011;11731;48.592;8.858;2022-12-10T03:18:19;27.17;;;15.87;;
23123;SDS011;11731;48.592;8.858;2022-12-10T03:20:50;24.90;;;14.70;;
23123;SDS011;11731;48.592;8.858;2022-12-10T03:23:20;29.63;;;16.83;;
23123;SDS011;11731;48.592;8.858;2022-12-10T03:25:51;30.73;;;16.63;;
23123;SDS011;11731;48.592;8.858;2022-12-10T03:31:24;26.23;;;16.30;;
23123;SDS011;11731;48.592;8.858;2022-12-10T03:33:53;25.97;;;15.27;;
23123;SDS011;11731;48.592;8.858;2022-12-10T03:36:20;25.63;;;14.17;;
23123;SDS011;11731;48.592;8.858;2022-12-10T03:38:50;26.17;;;15.67;;
23123;SDS011;11731;48.592;8.858;2022-12-10T03:41:19;23.07;;;14.97;;
23123;SDS011;11731;48.592;8.858;2022-12-10T03:43:50;26.83;;;14.73;;
23123;SDS011;11731;48.592;8.858;2022-12-10T03:46:18;25.70;;;15.27;;
23123;SDS011;11731;48.592;8.858;2022-12-10T03:48:45;26.97;;;16.67;;
23123;SDS011;11731;48.592;8.858;2022-12-10T03:53:56;25.93;;;14.90;;
23123;SDS011;11731;48.592;8.858;2022-12-10T03:56:23;33.70;;;16.33;;
23123;SDS011;11731;48.592;8.858;2022-12-10T03:58:50;26.73;;;16.20;;
23123;SDS011;11731;48.592;8.858;2022-12-10T04:01:17;26.53;;;15.80;;
23123;SDS011;11731;48.592;8.858;2022-12-10T04:03:43;24.90;;;15.73;;
23123;SDS011;11731;48.592;8.858;2022-12-10T04:06:12;28.13;;;16.27;;
23123;SDS011;11731;48.592;8.858;2022-12-10T04:08:41;29.30;;;15.70;;
23123;SDS011;11731;48.592;8.858;2022-12-10T04:11:09;24.90;;;15.30;;
23123;SDS011;11731;48.592;8.858;2022-12-10T04:13:37;28.90;;;15.57;;
23123;SDS011;11731;48.592;8.858;2022-12-10T04:16:42;25.90;;;15.73;;
23123;SDS011;11731;48.592;8.858;2022-12-10T04:19:10;24.60;;;15.70;;
23123;SDS011;11731;48.592;8.858;2022-12-10T04:21:39;27.00;;;15.33;;
23123;SDS011;11731;48.592;8.858;2022-12-10T04:24:26;26.03;;;15.83;;
23123;SDS011;11731;48.592;8.858;2022-12-10T04:27:13;24.73;;;14.17;;
23123;SDS011;11731;48.592;8.858;2022-12-10T04:29:43;21.50;;;14.30;;
23123;SDS011;11731;48.592;8.858;2022-12-10T04:32:10;24.07;;;14.50;;
23123;SDS011;11731;48.592;8.858;2022-12-10T04:34:37;25.73;;;15.93;;
23123;SDS011;11731;48.592;8.858;2022-12-10T04:37:05;27.60;;;15.13;;
23123;SDS011;11731;48.592;8.858;2022-12-10T04:39:33;28.17;;;16.00;;
23123;SDS011;11731;48.592;8.858;2022-12-10T04:42:00;26.90;;;14.37;;
23123;SDS011;11731;48.592;8.858;2022-12-10T04:44:27;22.63;;;14.33;;
23123;SDS011;11731;48.592;8.858;2022-12-10T04:46:54;31.53;;;16.90;;
23123;SDS011;11731;48.592;8.858;2022-12-10T04:49:21;26.77;;;16.30;;
23123;SDS011;11731;48.592;8.858;2022-12-10T04:51:49;26.87;;;15.47;;
23123;SDS011;11731;48.592;8.858;2022-12-10T04:54:17;23.60;;;15.23;;
23123;SDS011;11731;48.592;8.858;2022-12-10T04:56:46;28.03;;;15.63;;
23123;SDS011;11731;48.592;8.858;2022-12-10T04:59:13;24.40;;;15.43;;
23123;SDS011;11731;48.592;8.858;2022-12-10T05:01:41;24.07;;;14.87;;
23123;SDS011;11731;48.592;8.858;2022-12-10T05:04:10;26.93;;;15.53;;
23123;SDS011;11731;48.592;8.858;2022-12-10T05:06:38;27.70;;;15.43;;
23123;SDS011;11731;48.592;8.858;2022-12-10T05:09:05;22.70;;;14.97;;
23123;SDS011;11731;48.592;8.858;2022-12-10T05:11:32;25.27;;;15.70;;
23123;SDS011;11731;48.592;8.858;2022-12-10T05:14:01;22.97;;;13.60;;
23123;SDS011;11731;48.592;8.858;2022-12-10T05:16:29;28.30;;;14.70;;
23123;SDS011;11731;48.592;8.858;2022-12-10T05:18:57;22.87;;;15.00;;
23123;SDS011;11731;48.592;8.858;2022-12-10T05:21:25;25.73;;;14.83;;
23123;SDS011;11731;48.592;8.858;2022-12-10T05:24:15;27.27;;;15.70;;
23123;SDS011;11731;48.592;8.858;2022-12-10T05:26:42;23.97;;;14.47;;
23123;SDS011;11731;48.592;8.858;2022-12-10T05:29:11;23.97;;;14.33;;
23123;SDS011;11731;48.592;8.858;2022-12-10T05:31:39;21.20;;;13.37;;
23123;SDS011;11731;48.592;8.858;2022-12-10T05:34:06;23.27;;;14.67;;
23123;SDS011;11731;48.592;8.858;2022-12-10T05:36:34;25.60;;;14.67;;
23123;SDS011;11731;48.592;8.858;2022-12-10T05:39:01;24.17;;;14.60;;
23123;SDS011;11731;48.592;8.858;2022-12-10T05:41:29;25.50;;;14.43;;
23123;SDS011;11731;48.592;8.858;2022-12-10T05:43:59;29.77;;;15.77;;
23123;SDS011;11731;48.592;8.858;2022-12-10T05:46:28;22.60;;;14.20;;
23123;SDS011;11731;48.592;8.858;2022-12-10T05:48:56;23.77;;;13.83;;
23123;SDS011;11731;48.592;8.858;2022-12-10T05:51:26;22.17;;;14.03;;
23123;SDS011;11731;48.592;8.858;2022-12-10T05:53:55;27.30;;;16.17;;
23123;SDS011;11731;48.592;8.858;2022-12-10T05:56:24;22.37;;;14.13;;
23123;SDS011;11731;48.592;8.858;2022-12-10T05:58:53;25.70;;;14.53;;
23123;SDS011;11731;48.592;8.858;2022-12-10T06:01:28;20.77;;;13.40;;
23123;SDS011;11731;48.592;8.858;2022-12-10T06:03:57;24.73;;;15.33;;
23123;SDS011;11731;48.592;8.858;2022-12-10T06:06:24;24.13;;;12.67;;
23123;SDS011;11731;48.592;8.858;2022-12-10T06:08:53;23.47;;;14.57;;
23123;SDS011;11731;48.592;8.858;2022-12-10T06:11:21;24.17;;;14.33;;
23123;SDS011;11731;48.592;8.858;2022-12-10T06:13:48;23.17;;;15.03;;
23123;SDS011;11731;48.592;8.858;2022-12-10T06:16:15;25.33;;;15.30;;
23123;SDS011;11731;48.592;8.858;2022-12-10T06:18:43;25.53;;;14.67;;
23123;SDS011;11731;48.592;8.858;2022-12-10T06:21:11;22.57;;;14.70;;
23123;SDS011;11731;48.592;8.858;2022-12-10T06:23:39;25.43;;;14.73;;
23123;SDS011;11731;48.592;8.858;2022-12-10T06:26:07;25.97;;;14.23;;
23123;SDS011;11731;48.592;8.858;2022-12-10T06:28:36;24.50;;;14.03;;
23123;SDS011;11731;48.592;8.858;2022-12-10T06:31:03;24.17;;;14.07;;
23123;SDS011;11731;48.592;8.858;2022-12-10T06:33:31;25.53;;;14.27;;
23123;SDS011;11731;48.592;8.858;2022-12-10T06:35:59;22.13;;;14.57;;
23123;SDS011;11731;48.592;8.858;2022-12-10T06:38:28;24.93;;;14.80;;
23123;SDS011;11731;48.592;8.858;2022-12-10T06:40:55;23.20;;;14.83;;
23123;SDS011;11731;48.592;8.858;2022-12-10T06:43:22;24.53;;;14.63;;
23123;SDS011;11731;48.592;8.858;2022-12-10T06:45:49;24.90;;;14.77;;
23123;SDS011;11731;48.592;8.858;2022-12-10T06:48:16;22.60;;;14.40;;
23123;SDS011;11731;48.592;8.858;2022-12-10T06:50:43;25.50;;;14.77;;
23123;SDS011;11731;48.592;8.858;2022-12-10T06:53:11;23.90;;;13.97;;
23123;SDS011;11731;48.592;8.858;2022-12-10T06:55:38;22.53;;;14.47;;
23123;SDS011;11731;48.592;8.858;2022-12-10T06:58:04;22.37;;;13.90;;
23123;SDS011;11731;48.592;8.858;2022-12-10T07:00:31;23.07;;;13.60;;
23123;SDS011;11731;48.592;8.858;2022-12-10T07:02:58;24.67;;;14.73;;
23123;SDS011;11731;48.592;8.858;2022-12-10T07:05:25;23.63;;;15.00;;
23123;SDS011;11731;48.592;8.858;2022-12-10T07:07:52;22.60;;;14.63;;
23123;SDS011;11731;48.592;8.858;2022-12-10T07:10:20;22.27;;;13.67;;
23123;SDS011;11731;48.592;8.858;2022-12-10T07:12:47;22.80;;;14.50;;
23123;SDS011;11731;48.592;8.858;2022-12-10T07:15:14;26.20;;;15.07;;
23123;SDS011;11731;48.592;8.858;2022-12-10T07:17:41;28.73;;;16.63;;
23123;SDS011;11731;48.592;8.858;2022-12-10T07:20:09;24.23;;;14.27;;
23123;SDS011;11731;48.592;8.858;2022-12-10T07:22:36;26.37;;;14.40;;
23123;SDS011;11731;48.592;8.858;2022-12-10T07:25:04;25.57;;;14.97;;
23123;SDS011;11731;48.592;8.858;2022-12-10T07:27:32;23.73;;;13.47;;
23123;SDS011;11731;48.592;8.858;2022-12-10T07:29:59;22.77;;;14.07;;
23123;SDS011;11731;48.592;8.858;2022-12-10T07:32:26;25.13;;;15.43;;
23123;SDS011;11731;48.592;8.858;2022-12-10T07:34:53;26.93;;;15.63;;
23123;SDS011;11731;48.592;8.858;2022-12-10T07:37:20;25.40;;;14.60;;
23123;SDS011;11731;48.592;8.858;2022-12-10T07:39:47;25.10;;;15.50;;
23123;SDS011;11731;48.592;8.858;2022-12-10T07:42:14;26.53;;;16.40;;
23123;SDS011;11731;48.592;8.858;2022-12-10T07:44:42;24.70;;;15.07;;
23123;SDS011;11731;48.592;8.858;2022-12-10T07:47:09;27.10;;;15.97;;
23123;SDS011;11731;48.592;8.858;2022-12-10T07:49:36;26.37;;;15.00;;
23123;SDS011;11731;48.592;8.858;2022-12-10T07:52:03;26.93;;;16.73;;
23123;SDS011;11731;48.592;8.858;2022-12-10T07:54:30;23.63;;;13.40;;
23123;SDS011;11731;48.592;8.858;2022-12-10T07:56:57;23.30;;;15.03;;
23123;SDS011;11731;48.592;8.858;2022-12-10T07:59:24;22.47;;;14.60;;
23123;SDS011;11731;48.592;8.858;2022-12-10T08:01:52;23.73;;;15.27;;
23123;SDS011;11731;48.592;8.858;2022-12-10T08:04:19;27.20;;;16.53;;
23123;SDS011;11731;48.592;8.858;2022-12-10T08:06:53;23.73;;;15.27;;
23123;SDS011;11731;48.592;8.858;2022-12-10T08:09:20;24.43;;;15.53;;
23123;SDS011;11731;48.592;8.858;2022-12-10T08:11:47;23.67;;;14.50;;
23123;SDS011;11731;48.592;8.858;2022-12-10T08:14:14;23.40;;;15.17;;
23123;SDS011;11731;48.592;8.858;2022-12-10T08:16:41;23.13;;;15.20;;
23123;SDS011;11731;48.592;8.858;2022-12-10T08:19:09;25.37;;;15.83;;
23123;SDS011;11731;48.592;8.858;2022-12-10T08:21:36;24.63;;;14.67;;
23123;SDS011;11731;48.592;8.858;2022-12-10T08:24:03;24.60;;;15.27;;
23123;SDS011;11731;48.592;8.858;2022-12-10T08:26:31;24.13;;;14.80;;
23123;SDS011;11731;48.592;8.858;2022-12-10T08:28:58;27.73;;;15.37;;
23123;SDS011;11731;48.592;8.858;2022-12-10T08:31:26;26.20;;;14.70;;
23123;SDS011;11731;48.592;8.858;2022-12-10T08:33:53;26.43;;;14.70;;
23123;SDS011;11731;48.592;8.858;2022-12-10T08:36:22;26.43;;;14.87;;
23123;SDS011;11731;48.592;8.858;2022-12-10T08:38:49;24.37;;;15.07;;
23123;SDS011;11731;48.592;8.858;2022-12-10T08:41:16;22.67;;;14.40;;
23123;SDS011;11731;48.592;8.858;2022-12-10T08:43:44;24.57;;;15.13;;
23123;SDS011;11731;48.592;8.858;2022-12-10T08:46:12;23.07;;;14.17;;
23123;SDS011;11731;48.592;8.858;2022-12-10T08:48:40;22.60;;;14.10;;
23123;SDS011;11731;48.592;8.858;2022-12-10T08:51:08;21.80;;;13.83;;
23123;SDS011;11731;48.592;8.858;2022-12-10T08:53:38;23.80;;;14.23;;
23123;SDS011;11731;48.592;8.858;2022-12-10T08:56:05;20.47;;;13.57;;
23123;SDS011;11731;48.592;8.858;2022-12-10T08:58:33;21.00;;;13.90;;
23123;SDS011;11731;48.592;8.858;2022-12-10T09:00:59;22.63;;;14.27;;
23123;SDS011;11731;48.592;8.858;2022-12-10T09:03:32;21.77;;;14.33;;
23123;SDS011;11731;48.592;8.858;2022-12-10T09:06:01;21.17;;;13.93;;
23123;SDS011;11731;48.592;8.858;2022-12-10T09:08:29;21.07;;;13.30;;
23123;SDS011;11731;48.592;8.858;2022-12-10T09:10:57;21.17;;;14.10;;
23123;SDS011;11731;48.592;8.858;2022-12-10T09:13:24;19.00;;;13.23;;
23123;SDS011;11731;48.592;8.858;2022-12-10T09:15:51;22.53;;;13.33;;
23123;SDS011;11731;48.592;8.858;2022-12-10T09:18:18;23.43;;;13.73;;
23123;SDS011;11731;48.592;8.858;2022-12-10T09:20:45;20.80;;;13.70;;
23123;SDS011;11731;48.592;8.858;2022-12-10T09:23:12;19.87;;;13.63;;
23123;SDS011;11731;48.592;8.858;2022-12-10T09:25:39;20.33;;;12.53;;
23123;SDS011;11731;48.592;8.858;2022-12-10T09:28:07;18.63;;;12.93;;
23123;SDS011;11731;48.592;8.858;2022-12-10T09:30:34;21.27;;;12.27;;
23123;SDS011;11731;48.592;8.858;2022-12-10T09:33:01;19.23;;;12.60;;
23123;SDS011;11731;48.592;8.858;2022-12-10T09:35:28;16.90;;;11.67;;
23123;SDS011;11731;48.592;8.858;2022-12-10T09:37:55;20.17;;;12.10;;
23123;SDS011;11731;48.592;8.858;2022-12-10T09:40:24;20.33;;;12.50;;
23123;SDS011;11731;48.592;8.858;2022-12-10T09:42:58;17.80;;;12.30;;
23123;SDS011;11731;48.592;8.858;2022-12-10T09:45:34;20.57;;;13.67;;
23123;SDS011;11731;48.592;8.858;2022-12-10T09:48:11;19.33;;;13.17;;
23123;SDS011;11731;48.592;8.858;2022-12-10T09:50:47;21.97;;;14.00;;
23123;SDS011;11731;48.592;8.858;2022-12-10T09:53:19;19.77;;;12.53;;
23123;SDS011;11731;48.592;8.858;2022-12-10T09:55:48;21.57;;;13.13;;
23123;SDS011;11731;48.592;8.858;2022-12-10T09:58:17;21.83;;;13.27;;
23123;SDS011;11731;48.592;8.858;2022-12-10T10:00:47;18.07;;;12.57;;
23123;SDS011;11731;48.592;8.858;2022-12-10T10:03:17;20.97;;;12.57;;
23123;SDS011;11731;48.592;8.858;2022-12-10T10:05:46;20.60;;;12.57;;
23123;SDS011;11731;48.592;8.858;2022-12-10T10:08:26;21.47;;;13.37;;
23123;SDS011;11731;48.592;8.858;2022-12-10T10:10:55;23.57;;;12.70;;
23123;SDS011;11731;48.592;8.858;2022-12-10T10:13:26;23.73;;;14.43;;
23123;SDS011;11731;48.592;8.858;2022-12-10T10:15:58;20.07;;;12.27;;
23123;SDS011;11731;48.592;8.858;2022-12-10T10:18:39;20.23;;;13.27;;
23123;SDS011;11731;48.592;8.858;2022-12-10T10:21:11;21.27;;;13.07;;
23123;SDS011;11731;48.592;8.858;2022-12-10T10:23:43;18.80;;;12.47;;
23123;SDS011;11731;48.592;8.858;2022-12-10T10:26:12;23.47;;;12.87;;
23123;SDS011;11731;48.592;8.858;2022-12-10T10:28:39;19.63;;;12.47;;
23123;SDS011;11731;48.592;8.858;2022-12-10T10:31:12;17.97;;;11.80;;
23123;SDS011;11731;48.592;8.858;2022-12-10T10:33:47;18.87;;;12.87;;
23123;SDS011;11731;48.592;8.858;2022-12-10T10:36:22;19.60;;;12.60;;
23123;SDS011;11731;48.592;8.858;2022-12-10T10:38:50;19.43;;;12.50;;
23123;SDS011;11731;48.592;8.858;2022-12-10T10:41:16;17.33;;;11.27;;
23123;SDS011;11731;48.592;8.858;2022-12-10T10:43:43;15.77;;;11.47;;
23123;SDS011;11731;48.592;8.858;2022-12-10T10:46:14;17.40;;;11.60;;
23123;SDS011;11731;48.592;8.858;2022-12-10T10:48:42;18.10;;;11.47;;
23123;SDS011;11731;48.592;8.858;2022-12-10T10:51:15;18.17;;;12.17;;
23123;SDS011;11731;48.592;8.858;2022-12-10T10:53:46;16.77;;;11.27;;
23123;SDS011;11731;48.592;8.858;2022-12-10T10:56:17;18.77;;;12.43;;
23123;SDS011;11731;48.592;8.858;2022-12-10T10:58:51;16.90;;;11.57;;
23123;SDS011;11731;48.592;8.858;2022-12-10T11:01:22;19.73;;;11.37;;
23123;SDS011;11731;48.592;8.858;2022-12-10T11:03:53;17.30;;;11.30;;
23123;SDS011;11731;48.592;8.858;2022-12-10T11:06:21;19.33;;;11.87;;
23123;SDS011;11731;48.592;8.858;2022-12-10T11:08:49;19.03;;;11.80;;
23123;SDS011;11731;48.592;8.858;2022-12-10T11:11:20;16.27;;;11.20;;
23123;SDS011;11731;48.592;8.858;2022-12-10T11:13:50;17.30;;;12.20;;
23123;SDS011;11731;48.592;8.858;2022-12-10T11:23:12;16.37;;;11.60;;
23123;SDS011;11731;48.592;8.858;2022-12-10T11:26:11;15.93;;;11.53;;
23123;SDS011;11731;48.592;8.858;2022-12-10T11:29:05;18.73;;;11.70;;
23123;SDS011;11731;48.592;8.858;2022-12-10T11:32:07;15.60;;;11.47;;
23123;SDS011;11731;48.592;8.858;2022-12-10T11:34:49;17.87;;;11.60;;
23123;SDS011;11731;48.592;8.858;2022-12-10T11:37:31;15.57;;;11.13;;
23123;SDS011;11731;48.592;8.858;2022-12-10T11:40:06;14.97;;;10.80;;
23123;SDS011;11731;48.592;8.858;2022-12-10T11:42:48;17.67;;;11.27;;
23123;SDS011;11731;48.592;8.858;2022-12-10T11:45:26;18.07;;;11.37;;
23123;SDS011;11731;48.592;8.858;2022-12-10T11:48:03;16.30;;;10.70;;
23123;SDS011;11731;48.592;8.858;2022-12-10T11:50:42;15.80;;;10.40;;
23123;SDS011;11731;48.592;8.858;2022-12-10T11:53:23;15.10;;;10.63;;
23123;SDS011;11731;48.592;8.858;2022-12-10T11:56:09;16.03;;;10.63;;
23123;SDS011;11731;48.592;8.858;2022-12-10T11:58:52;18.53;;;10.23;;
23123;SDS011;11731;48.592;8.858;2022-12-10T12:01:34;15.43;;;11.10;;
23123;SDS011;11731;48.592;8.858;2022-12-10T12:10:12;14.13;;;9.37;;
23123;SDS011;11731;48.592;8.858;2022-12-10T12:12:53;14.30;;;9.50;;
23123;SDS011;11731;48.592;8.858;2022-12-10T12:15:25;12.83;;;8.90;;
23123;SDS011;11731;48.592;8.858;2022-12-10T12:17:58;13.70;;;9.27;;
23123;SDS011;11731;48.592;8.858;2022-12-10T12:20:29;15.07;;;9.77;;
23123;SDS011;11731;48.592;8.858;2022-12-10T12:23:02;15.13;;;9.70;;
23123;SDS011;11731;48.592;8.858;2022-12-10T12:25:38;12.60;;;9.00;;
23123;SDS011;11731;48.592;8.858;2022-12-10T12:28:11;12.67;;;9.40;;
23123;SDS011;11731;48.592;8.858;2022-12-10T12:30:41;12.40;;;8.50;;
23123;SDS011;11731;48.592;8.858;2022-12-10T12:33:10;10.83;;;7.80;;
23123;SDS011;11731;48.592;8.858;2022-12-10T12:35:43;14.57;;;9.30;;
23123;SDS011;11731;48.592;8.858;2022-12-10T12:38:23;12.07;;;8.63;;
23123;SDS011;11731;48.592;8.858;2022-12-10T12:44:09;16.93;;;9.50;;
23123;SDS011;11731;48.592;8.858;2022-12-10T12:46:44;12.13;;;9.00;;
23123;SDS011;11731;48.592;8.858;2022-12-10T12:49:14;14.67;;;9.27;;
23123;SDS011;11731;48.592;8.858;2022-12-10T12:51:48;15.53;;;8.60;;
23123;SDS011;11731;48.592;8.858;2022-12-10T12:54:19;13.40;;;9.23;;
23123;SDS011;11731;48.592;8.858;2022-12-10T12:56:53;12.73;;;8.63;;
23123;SDS011;11731;48.592;8.858;2022-12-10T12:59:39;12.43;;;8.27;;
23123;SDS011;11731;48.592;8.858;2022-12-10T13:02:21;13.83;;;8.97;;
23123;SDS011;11731;48.592;8.858;2022-12-10T13:04:59;14.60;;;9.07;;
23123;SDS011;11731;48.592;8.858;2022-12-10T13:07:27;10.97;;;8.33;;
23123;SDS011;11731;48.592;8.858;2022-12-10T13:10:10;11.67;;;7.70;;
23123;SDS011;11731;48.592;8.858;2022-12-10T13:12:51;10.83;;;7.97;;
23123;SDS011;11731;48.592;8.858;2022-12-10T13:15:34;13.50;;;8.63;;
23123;SDS011;11731;48.592;8.858;2022-12-10T13:18:04;14.53;;;8.90;;
23123;SDS011;11731;48.592;8.858;2022-12-10T13:20:51;11.97;;;8.37;;
23123;SDS011;11731;48.592;8.858;2022-12-10T13:23:46;9.63;;;7.03;;
23123;SDS011;11731;48.592;8.858;2022-12-10T13:26:21;12.87;;;8.27;;
23123;SDS011;11731;48.592;8.858;2022-12-10T13:28:51;14.93;;;8.23;;
23123;SDS011;11731;48.592;8.858;2022-12-10T13:31:32;11.77;;;7.97;;
23123;SDS011;11731;48.592;8.858;2022-12-10T13:34:06;12.07;;;8.20;;
23123;SDS011;11731;48.592;8.858;2022-12-10T13:37:15;12.97;;;8.13;;
23123;SDS011;11731;48.592;8.858;2022-12-10T13:42:55;12.50;;;8.70;;
23123;SDS011;11731;48.592;8.858;2022-12-10T13:45:41;13.23;;;8.53;;
23123;SDS011;11731;48.592;8.858;2022-12-10T13:48:28;12.27;;;8.87;;
23123;SDS011;11731;48.592;8.858;2022-12-10T13:51:07;12.63;;;8.33;;
23123;SDS011;11731;48.592;8.858;2022-12-10T13:54:01;13.70;;;8.83;;
23123;SDS011;11731;48.592;8.858;2022-12-10T13:56:40;15.73;;;9.03;;
23123;SDS011;11731;48.592;8.858;2022-12-10T13:59:16;12.67;;;7.87;;
23123;SDS011;11731;48.592;8.858;2022-12-10T14:05:09;10.07;;;6.77;;
23123;SDS011;11731;48.592;8.858;2022-12-10T14:07:55;11.47;;;7.63;;
23123;SDS011;11731;48.592;8.858;2022-12-10T14:10:24;11.93;;;8.27;;
23123;SDS011;11731;48.592;8.858;2022-12-10T14:13:15;11.87;;;8.33;;
23123;SDS011;11731;48.592;8.858;2022-12-10T14:15:47;12.10;;;8.10;;
23123;SDS011;11731;48.592;8.858;2022-12-10T14:18:20;14.20;;;8.60;;
23123;SDS011;11731;48.592;8.858;2022-12-10T14:20:50;10.83;;;8.03;;
23123;SDS011;11731;48.592;8.858;2022-12-10T14:23:20;14.37;;;8.60;;
23123;SDS011;11731;48.592;8.858;2022-12-10T14:26:02;13.23;;;8.83;;
23123;SDS011;11731;48.592;8.858;2022-12-10T14:28:37;13.60;;;8.53;;
23123;SDS011;11731;48.592;8.858;2022-12-10T14:31:06;11.53;;;7.90;;
23123;SDS011;11731;48.592;8.858;2022-12-10T14:33:38;11.40;;;6.93;;
23123;SDS011;11731;48.592;8.858;2022-12-10T14:36:12;14.60;;;8.03;;
23123;SDS011;11731;48.592;8.858;2022-12-10T14:38:43;12.90;;;8.67;;
23123;SDS011;11731;48.592;8.858;2022-12-10T14:41:14;13.50;;;8.67;;
23123;SDS011;11731;48.592;8.858;2022-12-10T14:43:45;14.40;;;8.87;;
23123;SDS011;11731;48.592;8.858;2022-12-10T14:46:13;12.97;;;8.90;;
23123;SDS011;11731;48.592;8.858;2022-12-10T14:48:42;12.73;;;8.43;;
23123;SDS011;11731;48.592;8.858;2022-12-10T14:51:13;12.77;;;8.03;;
23123;SDS011;11731;48.592;8.858;2022-12-10T14:53:55;11.80;;;8.33;;
23123;SDS011;11731;48.592;8.858;2022-12-10T14:56:25;13.83;;;8.70;;
23123;SDS011;11731;48.592;8.858;2022-12-10T14:58:57;13.67;;;8.83;;
23123;SDS011;11731;48.592;8.858;2022-12-10T15:01:31;13.37;;;8.20;;
23123;SDS011;11731;48.592;8.858;2022-12-10T15:04:01;12.10;;;7.80;;
23123;SDS011;11731;48.592;8.858;2022-12-10T15:06:34;16.20;;;9.30;;
23123;SDS011;11731;48.592;8.858;2022-12-10T15:09:02;14.87;;;8.37;;
23123;SDS011;11731;48.592;8.858;2022-12-10T15:11:32;13.90;;;8.73;;
23123;SDS011;11731;48.592;8.858;2022-12-10T15:13:59;16.73;;;9.43;;
23123;SDS011;11731;48.592;8.858;2022-12-10T15:16:29;13.50;;;9.23;;
23123;SDS011;11731;48.592;8.858;2022-12-10T15:19:08;12.73;;;8.67;;
23123;SDS011;11731;48.592;8.858;2022-12-10T15:21:43;16.23;;;9.50;;
23123;SDS011;11731;48.592;8.858;2022-12-10T15:24:16;14.97;;;9.00;;
23123;SDS011;11731;48.592;8.858;2022-12-10T15:26:46;16.53;;;9.50;;
23123;SDS011;11731;48.592;8.858;2022-12-10T15:29:33;13.47;;;8.67;;
23123;SDS011;11731;48.592;8.858;2022-12-10T15:32:03;14.40;;;9.27;;
23123;SDS011;11731;48.592;8.858;2022-12-10T15:34:39;13.40;;;7.90;;
23123;SDS011;11731;48.592;8.858;2022-12-10T15:37:15;15.00;;;10.30;;
23123;SDS011;11731;48.592;8.858;2022-12-10T15:39:48;15.03;;;9.53;;
23123;SDS011;11731;48.592;8.858;2022-12-10T15:42:35;15.17;;;9.83;;
23123;SDS011;11731;48.592;8.858;2022-12-10T15:45:11;16.80;;;9.63;;
23123;SDS011;11731;48.592;8.858;2022-12-10T15:47:47;15.13;;;10.03;;